sensor_id;sensor_type;location;lat;lon;timestamp;temperature;humidity
46590;DHT22;32313;48.722;9.362;2023-07-13T00:01:48;17.50;99.90
46590;DHT22;32313;48.722;9.362;2023-07-13T00:04:21;17.50;99.90
46590;DHT22;32313;48.722;9.362;2023-07-13T00:06:47;17.50;99.90
46590;DHT22;32313;48.722;9.362;2023-07-13T00:09:13;17.40;99.90
46590;DHT22;32313;48.722;9.362;2023-07-13T00:11:40;17.50;99.90
46590;DHT22;32313;48.722;9.362;2023-07-13T00:14:06;17.50;99.90
46590;DHT22;32313;48.722;9.362;2023-07-13T00:16:35;17.60;99.90
46590;DHT22;32313;48.722;9.362;2023-07-13T00:19:01;17.60;99.90
46590;DHT22;32313;48.722;9.362;2023-07-13T00:21:27;17.60;99.90
46590;DHT22;32313;48.722;9.362;2023-07-13T00:23:53;17.60;99.90
46590;DHT22;32313;48.722;9.362;2023-07-13T00:26:18;17.70;99.90
46590;DHT22;32313;48.722;9.362;2023-07-13T00:28:44;17.70;99.90
46590;DHT22;32313;48.722;9.362;2023-07-13T00:31:11;17.70;99.90
46590;DHT22;32313;48.722;9.362;2023-07-13T00:33:37;17.70;99.90
46590;DHT22;32313;48.722;9.362;2023-07-13T00:36:03;17.70;99.90
46590;DHT22;32313;48.722;9.362;2023-07-13T00:38:29;17.70;99.90
46590;DHT22;32313;48.722;9.362;2023-07-13T00:40:55;17.80;99.90
46590;DHT22;32313;48.722;9.362;2023-07-13T00:43:26;17.70;99.90
46590;DHT22;32313;48.722;9.362;2023-07-13T00:48:21;17.80;99.90
46590;DHT22;32313;48.722;9.362;2023-07-13T00:50:50;17.80;99.90
46590;DHT22;32313;48.722;9.362;2023-07-13T00:53:17;17.80;99.90
46590;DHT22;32313;48.722;9.362;2023-07-13T00:55:44;17.80;99.90
46590;DHT22;32313;48.722;9.362;2023-07-13T00:58:10;17.90;99.90
46590;DHT22;32313;48.722;9.362;2023-07-13T01:00:36;17.90;99.90
46590;DHT22;32313;48.722;9.362;2023-07-13T01:03:04;17.80;99.90
46590;DHT22;32313;48.722;9.362;2023-07-13T01:05:33;17.70;99.90
46590;DHT22;32313;48.722;9.362;2023-07-13T01:08:00;17.60;99.90
46590;DHT22;32313;48.722;9.362;2023-07-13T01:10:27;17.40;99.90
46590;DHT22;32313;48.722;9.362;2023-07-13T01:12:53;17.30;99.90
46590;DHT22;32313;48.722;9.362;2023-07-13T01:15:41;17.10;99.90
46590;DHT22;32313;48.722;9.362;2023-07-13T01:18:09;17.00;99.90
46590;DHT22;32313;48.722;9.362;2023-07-13T01:20:36;16.90;99.90
46590;DHT22;32313;48.722;9.362;2023-07-13T01:23:09;16.70;99.90
46590;DHT22;32313;48.722;9.362;2023-07-13T01:25:36;16.60;99.90
46590;DHT22;32313;48.722;9.362;2023-07-13T01:28:04;16.50;99.90
46590;DHT22;32313;48.722;9.362;2023-07-13T01:30:30;16.40;99.90
46590;DHT22;32313;48.722;9.362;2023-07-13T01:32:57;16.30;99.90
46590;DHT22;32313;48.722;9.362;2023-07-13T01:35:25;16.40;99.90
46590;DHT22;32313;48.722;9.362;2023-07-13T01:37:52;16.50;99.90
46590;DHT22;32313;48.722;9.362;2023-07-13T01:40:18;16.50;99.90
46590;DHT22;32313;48.722;9.362;2023-07-13T01:42:44;16.50;99.90
46590;DHT22;32313;48.722;9.362;2023-07-13T01:45:10;16.40;99.90
46590;DHT22;32313;48.722;9.362;2023-07-13T01:47:36;16.30;99.90
46590;DHT22;32313;48.722;9.362;2023-07-13T01:50:02;16.20;99.90
46590;DHT22;32313;48.722;9.362;2023-07-13T01:52:28;16.10;99.90
46590;DHT22;32313;48.722;9.362;2023-07-13T01:54:53;15.90;99.90
46590;DHT22;32313;48.722;9.362;2023-07-13T01:57:19;15.80;99.90
46590;DHT22;32313;48.722;9.362;2023-07-13T01:59:45;15.70;99.90
46590;DHT22;32313;48.722;9.362;2023-07-13T02:02:10;15.70;99.90
46590;DHT22;32313;48.722;9.362;2023-07-13T02:04:36;15.70;99.90
46590;DHT22;32313;48.722;9.362;2023-07-13T02:07:02;15.70;99.90
46590;DHT22;32313;48.722;9.362;2023-07-13T02:09:28;15.70;99.90
46590;DHT22;32313;48.722;9.362;2023-07-13T02:11:54;15.70;99.90
46590;DHT22;32313;48.722;9.362;2023-07-13T02:14:20;15.70;99.90
46590;DHT22;32313;48.722;9.362;2023-07-13T02:16:45;15.70;99.90
46590;DHT22;32313;48.722;9.362;2023-07-13T02:19:11;15.60;99.90
46590;DHT22;32313;48.722;9.362;2023-07-13T02:21:37;15.50;99.90
46590;DHT22;32313;48.722;9.362;2023-07-13T02:24:03;15.60;99.90
46590;DHT22;32313;48.722;9.362;2023-07-13T02:26:28;15.70;99.90
46590;DHT22;32313;48.722;9.362;2023-07-13T02:28:54;15.70;99.90
46590;DHT22;32313;48.722;9.362;2023-07-13T02:31:20;15.70;99.90
46590;DHT22;32313;48.722;9.362;2023-07-13T02:33:46;15.70;99.90
46590;DHT22;32313;48.722;9.362;2023-07-13T02:36:12;15.70;99.90
46590;DHT22;32313;48.722;9.362;2023-07-13T02:38:39;15.70;99.90
46590;DHT22;32313;48.722;9.362;2023-07-13T02:41:06;15.70;99.90
46590;DHT22;32313;48.722;9.362;2023-07-13T02:43:33;15.70;99.90
46590;DHT22;32313;48.722;9.362;2023-07-13T02:46:00;15.60;99.90
46590;DHT22;32313;48.722;9.362;2023-07-13T02:48:36;15.60;99.90
46590;DHT22;32313;48.722;9.362;2023-07-13T02:51:02;15.50;99.90
46590;DHT22;32313;48.722;9.362;2023-07-13T02:53:28;15.40;99.90
46590;DHT22;32313;48.722;9.362;2023-07-13T02:55:54;15.40;99.90
46590;DHT22;32313;48.722;9.362;2023-07-13T02:58:20;15.30;99.90
46590;DHT22;32313;48.722;9.362;2023-07-13T03:00:46;15.20;99.90
46590;DHT22;32313;48.722;9.362;2023-07-13T03:03:14;15.20;99.90
46590;DHT22;32313;48.722;9.362;2023-07-13T03:05:42;15.10;99.90
46590;DHT22;32313;48.722;9.362;2023-07-13T03:08:10;15.00;99.90
46590;DHT22;32313;48.722;9.362;2023-07-13T03:10:36;14.90;99.90
46590;DHT22;32313;48.722;9.362;2023-07-13T03:13:03;14.80;99.90
46590;DHT22;32313;48.722;9.362;2023-07-13T03:15:29;14.70;99.90
46590;DHT22;32313;48.722;9.362;2023-07-13T03:17:57;14.70;99.90
46590;DHT22;32313;48.722;9.362;2023-07-13T03:20:23;14.60;99.90
46590;DHT22;32313;48.722;9.362;2023-07-13T03:22:49;14.60;99.90
46590;DHT22;32313;48.722;9.362;2023-07-13T03:25:16;14.70;99.90
46590;DHT22;32313;48.722;9.362;2023-07-13T03:27:42;14.70;99.90
46590;DHT22;32313;48.722;9.362;2023-07-13T03:30:09;14.80;99.90
46590;DHT22;32313;48.722;9.362;2023-07-13T03:32:35;14.80;99.90
46590;DHT22;32313;48.722;9.362;2023-07-13T03:35:01;14.80;99.90
46590;DHT22;32313;48.722;9.362;2023-07-13T03:37:29;14.90;99.90
46590;DHT22;32313;48.722;9.362;2023-07-13T03:39:54;14.90;99.90
46590;DHT22;32313;48.722;9.362;2023-07-13T03:42:20;15.10;99.90
46590;DHT22;32313;48.722;9.362;2023-07-13T03:44:46;15.10;99.90
46590;DHT22;32313;48.722;9.362;2023-07-13T03:47:18;15.20;99.90
46590;DHT22;32313;48.722;9.362;2023-07-13T03:49:44;15.30;99.90
46590;DHT22;32313;48.722;9.362;2023-07-13T03:52:11;15.40;99.90
46590;DHT22;32313;48.722;9.362;2023-07-13T03:54:37;15.50;99.90
46590;DHT22;32313;48.722;9.362;2023-07-13T03:57:03;15.60;99.90
46590;DHT22;32313;48.722;9.362;2023-07-13T03:59:31;15.70;99.90
46590;DHT22;32313;48.722;9.362;2023-07-13T04:01:57;15.70;99.90
46590;DHT22;32313;48.722;9.362;2023-07-13T04:04:22;15.80;99.90
46590;DHT22;32313;48.722;9.362;2023-07-13T04:06:48;15.80;99.90
46590;DHT22;32313;48.722;9.362;2023-07-13T04:09:14;15.90;99.90
46590;DHT22;32313;48.722;9.362;2023-07-13T04:11:40;15.90;99.90
46590;DHT22;32313;48.722;9.362;2023-07-13T04:14:06;16.00;99.90
46590;DHT22;32313;48.722;9.362;2023-07-13T04:16:33;16.00;99.90
46590;DHT22;32313;48.722;9.362;2023-07-13T04:18:59;16.10;99.90
46590;DHT22;32313;48.722;9.362;2023-07-13T04:21:27;16.10;99.90
46590;DHT22;32313;48.722;9.362;2023-07-13T04:23:54;16.10;99.90
46590;DHT22;32313;48.722;9.362;2023-07-13T04:26:20;16.10;99.90
46590;DHT22;32313;48.722;9.362;2023-07-13T04:28:50;16.20;99.90
46590;DHT22;32313;48.722;9.362;2023-07-13T04:31:16;16.20;99.90
46590;DHT22;32313;48.722;9.362;2023-07-13T04:33:42;16.30;99.90
46590;DHT22;32313;48.722;9.362;2023-07-13T04:36:08;16.30;99.90
46590;DHT22;32313;48.722;9.362;2023-07-13T04:38:35;16.30;99.90
46590;DHT22;32313;48.722;9.362;2023-07-13T04:41:04;16.40;99.90
46590;DHT22;32313;48.722;9.362;2023-07-13T04:43:31;16.30;99.90
46590;DHT22;32313;48.722;9.362;2023-07-13T04:46:02;16.40;99.90
46590;DHT22;32313;48.722;9.362;2023-07-13T04:48:28;16.40;99.90
46590;DHT22;32313;48.722;9.362;2023-07-13T04:50:55;16.40;99.90
46590;DHT22;32313;48.722;9.362;2023-07-13T04:53:22;16.50;99.90
46590;DHT22;32313;48.722;9.362;2023-07-13T04:55:48;16.50;99.90
46590;DHT22;32313;48.722;9.362;2023-07-13T04:58:13;16.50;99.90
46590;DHT22;32313;48.722;9.362;2023-07-13T05:00:39;16.50;99.90
46590;DHT22;32313;48.722;9.362;2023-07-13T05:03:05;16.50;99.90
46590;DHT22;32313;48.722;9.362;2023-07-13T05:05:31;16.60;99.90
46590;DHT22;32313;48.722;9.362;2023-07-13T05:07:56;16.60;99.90
46590;DHT22;32313;48.722;9.362;2023-07-13T05:10:23;16.60;99.90
46590;DHT22;32313;48.722;9.362;2023-07-13T05:12:49;16.60;99.90
46590;DHT22;32313;48.722;9.362;2023-07-13T05:15:15;16.60;99.90
46590;DHT22;32313;48.722;9.362;2023-07-13T05:17:41;16.60;99.90
46590;DHT22;32313;48.722;9.362;2023-07-13T05:20:08;16.70;99.90
46590;DHT22;32313;48.722;9.362;2023-07-13T05:22:34;16.80;99.90
46590;DHT22;32313;48.722;9.362;2023-07-13T05:25:01;16.90;99.90
46590;DHT22;32313;48.722;9.362;2023-07-13T05:27:27;17.00;99.90
46590;DHT22;32313;48.722;9.362;2023-07-13T05:29:53;17.10;99.90
46590;DHT22;32313;48.722;9.362;2023-07-13T05:32:18;17.20;99.90
46590;DHT22;32313;48.722;9.362;2023-07-13T05:34:44;17.30;99.90
46590;DHT22;32313;48.722;9.362;2023-07-13T05:37:10;17.40;99.90
46590;DHT22;32313;48.722;9.362;2023-07-13T05:39:36;17.50;99.90
46590;DHT22;32313;48.722;9.362;2023-07-13T05:42:02;17.60;99.90
46590;DHT22;32313;48.722;9.362;2023-07-13T05:44:28;17.70;99.90
46590;DHT22;32313;48.722;9.362;2023-07-13T05:46:53;17.80;99.90
46590;DHT22;32313;48.722;9.362;2023-07-13T05:49:21;17.90;99.90
46590;DHT22;32313;48.722;9.362;2023-07-13T05:51:47;18.00;99.90
46590;DHT22;32313;48.722;9.362;2023-07-13T05:54:12;18.00;99.90
46590;DHT22;32313;48.722;9.362;2023-07-13T05:56:38;18.10;99.90
46590;DHT22;32313;48.722;9.362;2023-07-13T05:59:04;18.20;99.90
46590;DHT22;32313;48.722;9.362;2023-07-13T06:01:29;18.30;99.90
46590;DHT22;32313;48.722;9.362;2023-07-13T06:03:55;18.30;99.90
46590;DHT22;32313;48.722;9.362;2023-07-13T06:06:21;18.40;99.90
46590;DHT22;32313;48.722;9.362;2023-07-13T06:08:46;18.40;99.90
46590;DHT22;32313;48.722;9.362;2023-07-13T06:11:17;18.40;99.90
46590;DHT22;32313;48.722;9.362;2023-07-13T06:13:43;18.40;99.90
46590;DHT22;32313;48.722;9.362;2023-07-13T06:16:09;18.30;99.90
46590;DHT22;32313;48.722;9.362;2023-07-13T06:18:36;18.30;99.90
46590;DHT22;32313;48.722;9.362;2023-07-13T06:21:17;18.20;99.90
46590;DHT22;32313;48.722;9.362;2023-07-13T06:23:44;18.30;99.90
46590;DHT22;32313;48.722;9.362;2023-07-13T06:26:11;18.50;99.90
46590;DHT22;32313;48.722;9.362;2023-07-13T06:28:37;18.70;99.90
46590;DHT22;32313;48.722;9.362;2023-07-13T06:31:06;18.90;99.90
46590;DHT22;32313;48.722;9.362;2023-07-13T06:33:33;19.00;99.90
46590;DHT22;32313;48.722;9.362;2023-07-13T06:35:59;19.20;99.90
46590;DHT22;32313;48.722;9.362;2023-07-13T06:38:25;19.50;99.90
46590;DHT22;32313;48.722;9.362;2023-07-13T06:40:50;19.80;99.90
46590;DHT22;32313;48.722;9.362;2023-07-13T06:43:16;20.30;99.90
46590;DHT22;32313;48.722;9.362;2023-07-13T06:45:45;20.70;99.90
46590;DHT22;32313;48.722;9.362;2023-07-13T06:48:14;21.10;99.90
46590;DHT22;32313;48.722;9.362;2023-07-13T06:50:40;21.40;99.90
46590;DHT22;32313;48.722;9.362;2023-07-13T06:53:06;21.40;99.90
46590;DHT22;32313;48.722;9.362;2023-07-13T06:55:32;21.30;99.90
46590;DHT22;32313;48.722;9.362;2023-07-13T06:57:58;21.40;99.90
46590;DHT22;32313;48.722;9.362;2023-07-13T07:00:23;21.90;99.90
46590;DHT22;32313;48.722;9.362;2023-07-13T07:02:49;22.60;99.90
46590;DHT22;32313;48.722;9.362;2023-07-13T07:05:15;23.30;99.90
46590;DHT22;32313;48.722;9.362;2023-07-13T07:07:41;23.60;99.90
46590;DHT22;32313;48.722;9.362;2023-07-13T07:10:07;24.10;99.90
46590;DHT22;32313;48.722;9.362;2023-07-13T07:12:32;24.60;99.90
46590;DHT22;32313;48.722;9.362;2023-07-13T07:14:58;24.80;99.90
46590;DHT22;32313;48.722;9.362;2023-07-13T07:17:24;24.80;99.90
46590;DHT22;32313;48.722;9.362;2023-07-13T07:19:50;25.20;99.90
46590;DHT22;32313;48.722;9.362;2023-07-13T07:22:16;25.40;99.30
46590;DHT22;32313;48.722;9.362;2023-07-13T07:24:42;25.40;95.00
46590;DHT22;32313;48.722;9.362;2023-07-13T07:27:07;25.40;95.30
46590;DHT22;32313;48.722;9.362;2023-07-13T07:29:33;25.40;94.60
46590;DHT22;32313;48.722;9.362;2023-07-13T07:31:59;25.60;93.30
46590;DHT22;32313;48.722;9.362;2023-07-13T07:34:26;25.60;91.90
46590;DHT22;32313;48.722;9.362;2023-07-13T07:36:51;25.60;91.10
46590;DHT22;32313;48.722;9.362;2023-07-13T07:39:17;25.80;91.10
46590;DHT22;32313;48.722;9.362;2023-07-13T07:41:42;26.20;90.00
46590;DHT22;32313;48.722;9.362;2023-07-13T07:44:08;25.90;86.20
46590;DHT22;32313;48.722;9.362;2023-07-13T07:46:35;25.90;86.80
46590;DHT22;32313;48.722;9.362;2023-07-13T07:49:01;25.90;83.20
46590;DHT22;32313;48.722;9.362;2023-07-13T07:51:27;25.80;82.50
46590;DHT22;32313;48.722;9.362;2023-07-13T07:53:52;25.60;82.70
46590;DHT22;32313;48.722;9.362;2023-07-13T07:56:18;25.90;82.00
46590;DHT22;32313;48.722;9.362;2023-07-13T07:58:44;26.10;80.20
46590;DHT22;32313;48.722;9.362;2023-07-13T08:01:10;26.40;77.30
46590;DHT22;32313;48.722;9.362;2023-07-13T08:03:35;26.70;76.70
46590;DHT22;32313;48.722;9.362;2023-07-13T08:06:01;26.90;76.30
46590;DHT22;32313;48.722;9.362;2023-07-13T08:08:27;27.10;73.80
46590;DHT22;32313;48.722;9.362;2023-07-13T08:10:53;27.30;73.40
46590;DHT22;32313;48.722;9.362;2023-07-13T08:13:19;27.50;72.20
46590;DHT22;32313;48.722;9.362;2023-07-13T08:15:46;27.90;70.90
46590;DHT22;32313;48.722;9.362;2023-07-13T08:18:11;27.80;68.20
46590;DHT22;32313;48.722;9.362;2023-07-13T08:20:38;27.50;66.20
46590;DHT22;32313;48.722;9.362;2023-07-13T08:23:04;27.80;67.90
46590;DHT22;32313;48.722;9.362;2023-07-13T08:25:30;27.90;67.50
46590;DHT22;32313;48.722;9.362;2023-07-13T08:27:55;28.00;67.70
46590;DHT22;32313;48.722;9.362;2023-07-13T08:30:21;27.80;65.70
46590;DHT22;32313;48.722;9.362;2023-07-13T08:32:47;28.00;65.40
46590;DHT22;32313;48.722;9.362;2023-07-13T08:35:12;28.10;64.60
46590;DHT22;32313;48.722;9.362;2023-07-13T08:37:39;28.20;63.80
46590;DHT22;32313;48.722;9.362;2023-07-13T08:40:05;28.70;62.80
46590;DHT22;32313;48.722;9.362;2023-07-13T08:42:41;28.70;64.30
46590;DHT22;32313;48.722;9.362;2023-07-13T08:45:21;28.70;63.70
46590;DHT22;32313;48.722;9.362;2023-07-13T08:47:53;29.20;63.60
46590;DHT22;32313;48.722;9.362;2023-07-13T08:50:23;29.60;62.10
46590;DHT22;32313;48.722;9.362;2023-07-13T08:52:51;29.80;62.60
46590;DHT22;32313;48.722;9.362;2023-07-13T08:55:21;30.30;62.20
46590;DHT22;32313;48.722;9.362;2023-07-13T08:57:54;30.30;60.10
46590;DHT22;32313;48.722;9.362;2023-07-13T09:00:35;29.90;60.10
46590;DHT22;32313;48.722;9.362;2023-07-13T09:03:03;29.70;56.80
46590;DHT22;32313;48.722;9.362;2023-07-13T09:05:40;29.50;57.80
46590;DHT22;32313;48.722;9.362;2023-07-13T09:08:54;29.40;58.90
46590;DHT22;32313;48.722;9.362;2023-07-13T09:16:29;30.00;57.30
46590;DHT22;32313;48.722;9.362;2023-07-13T09:19:01;29.90;57.20
46590;DHT22;32313;48.722;9.362;2023-07-13T09:21:38;29.00;58.10
46590;DHT22;32313;48.722;9.362;2023-07-13T09:27:21;27.80;61.50
46590;DHT22;32313;48.722;9.362;2023-07-13T09:30:03;27.90;62.50
46590;DHT22;32313;48.722;9.362;2023-07-13T09:32:36;29.10;61.00
46590;DHT22;32313;48.722;9.362;2023-07-13T09:35:10;29.80;58.20
46590;DHT22;32313;48.722;9.362;2023-07-13T09:37:37;29.50;57.00
46590;DHT22;32313;48.722;9.362;2023-07-13T09:40:05;29.60;56.10
46590;DHT22;32313;48.722;9.362;2023-07-13T09:42:34;29.50;57.40
46590;DHT22;32313;48.722;9.362;2023-07-13T09:45:02;29.50;56.80
46590;DHT22;32313;48.722;9.362;2023-07-13T09:47:30;30.20;57.40
46590;DHT22;32313;48.722;9.362;2023-07-13T09:50:02;31.20;54.10
46590;DHT22;32313;48.722;9.362;2023-07-13T09:55:31;30.70;53.50
46590;DHT22;32313;48.722;9.362;2023-07-13T09:57:58;29.80;56.20
46590;DHT22;32313;48.722;9.362;2023-07-13T10:00:29;29.20;55.70
46590;DHT22;32313;48.722;9.362;2023-07-13T10:03:14;29.10;57.50
46590;DHT22;32313;48.722;9.362;2023-07-13T10:05:42;29.90;56.10
46590;DHT22;32313;48.722;9.362;2023-07-13T10:08:20;30.10;55.40
46590;DHT22;32313;48.722;9.362;2023-07-13T10:10:51;29.70;57.50
46590;DHT22;32313;48.722;9.362;2023-07-13T10:13:33;29.80;56.80
46590;DHT22;32313;48.722;9.362;2023-07-13T10:16:03;29.50;56.50
46590;DHT22;32313;48.722;9.362;2023-07-13T10:18:44;28.90;57.80
46590;DHT22;32313;48.722;9.362;2023-07-13T10:21:22;28.60;58.30
46590;DHT22;32313;48.722;9.362;2023-07-13T10:24:03;28.90;58.80
46590;DHT22;32313;48.722;9.362;2023-07-13T10:26:33;28.90;57.90
46590;DHT22;32313;48.722;9.362;2023-07-13T10:29:05;28.90;56.40
46590;DHT22;32313;48.722;9.362;2023-07-13T10:31:34;29.30;56.90
46590;DHT22;32313;48.722;9.362;2023-07-13T10:34:02;29.80;56.50
46590;DHT22;32313;48.722;9.362;2023-07-13T10:38:59;30.90;55.00
46590;DHT22;32313;48.722;9.362;2023-07-13T10:41:27;31.20;53.40
46590;DHT22;32313;48.722;9.362;2023-07-13T10:43:56;31.40;52.80
46590;DHT22;32313;48.722;9.362;2023-07-13T10:46:25;31.40;51.00
46590;DHT22;32313;48.722;9.362;2023-07-13T10:49:06;30.90;52.80
46590;DHT22;32313;48.722;9.362;2023-07-13T10:51:33;30.30;53.30
46590;DHT22;32313;48.722;9.362;2023-07-13T10:54:14;29.80;53.80
46590;DHT22;32313;48.722;9.362;2023-07-13T10:56:42;30.00;55.10
46590;DHT22;32313;48.722;9.362;2023-07-13T11:04:14;29.50;53.60
46590;DHT22;32313;48.722;9.362;2023-07-13T11:06:41;29.70;54.40
46590;DHT22;32313;48.722;9.362;2023-07-13T11:09:37;30.50;54.10
46590;DHT22;32313;48.722;9.362;2023-07-13T11:19:53;30.20;52.30
46590;DHT22;32313;48.722;9.362;2023-07-13T11:22:45;30.40;51.40
46590;DHT22;32313;48.722;9.362;2023-07-13T11:25:26;30.60;53.80
46590;DHT22;32313;48.722;9.362;2023-07-13T11:36:06;31.40;50.60
46590;DHT22;32313;48.722;9.362;2023-07-13T11:39:00;31.80;49.20
46590;DHT22;32313;48.722;9.362;2023-07-13T11:41:28;32.30;49.10
46590;DHT22;32313;48.722;9.362;2023-07-13T11:44:11;32.20;48.60
46590;DHT22;32313;48.722;9.362;2023-07-13T11:46:36;32.20;48.60
46590;DHT22;32313;48.722;9.362;2023-07-13T11:49:05;32.20;47.70
46590;DHT22;32313;48.722;9.362;2023-07-13T11:51:35;32.10;47.40
46590;DHT22;32313;48.722;9.362;2023-07-13T11:54:10;32.50;48.80
46590;DHT22;32313;48.722;9.362;2023-07-13T11:56:37;32.50;46.30
46590;DHT22;32313;48.722;9.362;2023-07-13T11:59:06;32.40;46.80
46590;DHT22;32313;48.722;9.362;2023-07-13T12:01:33;32.90;47.60
46590;DHT22;32313;48.722;9.362;2023-07-13T12:04:02;32.30;47.40
46590;DHT22;32313;48.722;9.362;2023-07-13T12:06:31;31.90;47.90
46590;DHT22;32313;48.722;9.362;2023-07-13T12:09:01;32.20;46.60
46590;DHT22;32313;48.722;9.362;2023-07-13T12:11:29;32.00;45.50
46590;DHT22;32313;48.722;9.362;2023-07-13T12:13:55;31.30;47.70
46590;DHT22;32313;48.722;9.362;2023-07-13T12:16:29;31.30;50.00
46590;DHT22;32313;48.722;9.362;2023-07-13T12:18:56;32.10;49.30
46590;DHT22;32313;48.722;9.362;2023-07-13T12:21:33;32.80;49.40
46590;DHT22;32313;48.722;9.362;2023-07-13T12:24:00;33.80;47.60
46590;DHT22;32313;48.722;9.362;2023-07-13T12:26:29;33.70;47.70
46590;DHT22;32313;48.722;9.362;2023-07-13T12:28:58;33.40;47.40
46590;DHT22;32313;48.722;9.362;2023-07-13T12:31:32;33.20;45.90
46590;DHT22;32313;48.722;9.362;2023-07-13T12:34:01;32.80;46.20
46590;DHT22;32313;48.722;9.362;2023-07-13T12:36:31;32.60;46.40
46590;DHT22;32313;48.722;9.362;2023-07-13T12:39:02;32.80;46.20
46590;DHT22;32313;48.722;9.362;2023-07-13T12:41:30;32.50;46.70
46590;DHT22;32313;48.722;9.362;2023-07-13T12:43:56;32.50;46.70
46590;DHT22;32313;48.722;9.362;2023-07-13T12:46:24;32.40;46.80
46590;DHT22;32313;48.722;9.362;2023-07-13T12:48:54;32.30;45.90
46590;DHT22;32313;48.722;9.362;2023-07-13T12:51:26;32.30;45.10
46590;DHT22;32313;48.722;9.362;2023-07-13T12:54:13;32.10;46.20
46590;DHT22;32313;48.722;9.362;2023-07-13T12:56:40;32.30;47.20
46590;DHT22;32313;48.722;9.362;2023-07-13T12:59:16;32.40;46.40
46590;DHT22;32313;48.722;9.362;2023-07-13T13:01:43;32.90;45.50
46590;DHT22;32313;48.722;9.362;2023-07-13T13:04:09;33.00;45.60
46590;DHT22;32313;48.722;9.362;2023-07-13T13:06:36;32.50;45.00
46590;DHT22;32313;48.722;9.362;2023-07-13T13:09:03;32.40;45.50
46590;DHT22;32313;48.722;9.362;2023-07-13T13:11:30;32.30;45.20
46590;DHT22;32313;48.722;9.362;2023-07-13T13:13:56;32.50;44.50
46590;DHT22;32313;48.722;9.362;2023-07-13T13:18:51;32.70;43.50
46590;DHT22;32313;48.722;9.362;2023-07-13T13:21:18;32.30;46.30
46590;DHT22;32313;48.722;9.362;2023-07-13T13:23:45;33.00;46.30
46590;DHT22;32313;48.722;9.362;2023-07-13T13:26:13;33.70;44.60
46590;DHT22;32313;48.722;9.362;2023-07-13T13:28:39;34.10;44.90
46590;DHT22;32313;48.722;9.362;2023-07-13T13:31:04;33.70;43.80
46590;DHT22;32313;48.722;9.362;2023-07-13T13:33:30;33.70;44.90
46590;DHT22;32313;48.722;9.362;2023-07-13T13:35:56;33.90;43.70
46590;DHT22;32313;48.722;9.362;2023-07-13T13:38:27;33.80;42.10
46590;DHT22;32313;48.722;9.362;2023-07-13T13:40:53;33.30;43.50
46590;DHT22;32313;48.722;9.362;2023-07-13T13:43:24;32.70;43.70
46590;DHT22;32313;48.722;9.362;2023-07-13T13:45:55;32.60;43.30
46590;DHT22;32313;48.722;9.362;2023-07-13T13:48:35;32.70;45.20
46590;DHT22;32313;48.722;9.362;2023-07-13T13:53:40;33.40;43.80
46590;DHT22;32313;48.722;9.362;2023-07-13T13:56:06;33.00;44.30
46590;DHT22;32313;48.722;9.362;2023-07-13T13:58:32;32.40;43.80
46590;DHT22;32313;48.722;9.362;2023-07-13T14:00:58;32.40;44.70
46590;DHT22;32313;48.722;9.362;2023-07-13T14:03:24;33.00;42.90
46590;DHT22;32313;48.722;9.362;2023-07-13T14:05:50;33.30;43.60
46590;DHT22;32313;48.722;9.362;2023-07-13T14:08:18;33.00;43.40
46590;DHT22;32313;48.722;9.362;2023-07-13T14:10:51;32.50;44.00
46590;DHT22;32313;48.722;9.362;2023-07-13T14:13:24;32.00;44.90
46590;DHT22;32313;48.722;9.362;2023-07-13T14:15:52;31.20;45.70
46590;DHT22;32313;48.722;9.362;2023-07-13T14:18:18;30.50;48.40
46590;DHT22;32313;48.722;9.362;2023-07-13T14:20:45;30.10;47.70
46590;DHT22;32313;48.722;9.362;2023-07-13T14:23:15;30.70;47.00
46590;DHT22;32313;48.722;9.362;2023-07-13T14:25:42;31.20;45.20
46590;DHT22;32313;48.722;9.362;2023-07-13T14:30:39;32.50;44.60
46590;DHT22;32313;48.722;9.362;2023-07-13T14:33:09;32.00;44.40
46590;DHT22;32313;48.722;9.362;2023-07-13T14:35:35;31.20;43.80
46590;DHT22;32313;48.722;9.362;2023-07-13T14:38:01;30.70;45.60
46590;DHT22;32313;48.722;9.362;2023-07-13T14:40:30;30.40;46.50
46590;DHT22;32313;48.722;9.362;2023-07-13T14:42:56;30.40;47.10
46590;DHT22;32313;48.722;9.362;2023-07-13T14:45:23;31.10;46.10
46590;DHT22;32313;48.722;9.362;2023-07-13T14:47:49;31.90;45.90
46590;DHT22;32313;48.722;9.362;2023-07-13T14:50:19;32.50;43.10
46590;DHT22;32313;48.722;9.362;2023-07-13T14:52:46;32.50;43.20
46590;DHT22;32313;48.722;9.362;2023-07-13T14:55:18;32.70;43.10
46590;DHT22;32313;48.722;9.362;2023-07-13T15:01:31;31.40;45.00
46590;DHT22;32313;48.722;9.362;2023-07-13T15:03:58;32.20;45.10
46590;DHT22;32313;48.722;9.362;2023-07-13T15:06:23;32.30;41.50
46590;DHT22;32313;48.722;9.362;2023-07-13T15:08:49;31.80;42.80
46590;DHT22;32313;48.722;9.362;2023-07-13T15:11:16;30.90;44.10
46590;DHT22;32313;48.722;9.362;2023-07-13T15:13:42;30.00;45.70
46590;DHT22;32313;48.722;9.362;2023-07-13T15:16:21;29.30;47.60
46590;DHT22;32313;48.722;9.362;2023-07-13T15:18:47;28.90;48.10
46590;DHT22;32313;48.722;9.362;2023-07-13T15:21:19;28.30;48.80
46590;DHT22;32313;48.722;9.362;2023-07-13T15:23:46;27.90;49.20
46590;DHT22;32313;48.722;9.362;2023-07-13T15:26:16;27.50;49.30
46590;DHT22;32313;48.722;9.362;2023-07-13T15:28:45;27.70;48.90
46590;DHT22;32313;48.722;9.362;2023-07-13T15:31:22;28.60;49.90
46590;DHT22;32313;48.722;9.362;2023-07-13T15:33:52;30.00;47.20
46590;DHT22;32313;48.722;9.362;2023-07-13T15:36:19;30.80;47.90
46590;DHT22;32313;48.722;9.362;2023-07-13T15:38:47;31.70;45.90
46590;DHT22;32313;48.722;9.362;2023-07-13T15:43:42;32.20;43.40
46590;DHT22;32313;48.722;9.362;2023-07-13T15:46:07;32.10;43.00
46590;DHT22;32313;48.722;9.362;2023-07-13T15:48:33;31.80;43.80
46590;DHT22;32313;48.722;9.362;2023-07-13T15:51:03;30.70;45.80
46590;DHT22;32313;48.722;9.362;2023-07-13T15:53:32;29.80;47.70
46590;DHT22;32313;48.722;9.362;2023-07-13T15:55:59;29.00;48.20
46590;DHT22;32313;48.722;9.362;2023-07-13T15:58:27;28.30;49.40
46590;DHT22;32313;48.722;9.362;2023-07-13T16:00:54;27.80;51.20
46590;DHT22;32313;48.722;9.362;2023-07-13T16:03:22;27.40;51.30
46590;DHT22;32313;48.722;9.362;2023-07-13T16:05:49;27.40;52.50
46590;DHT22;32313;48.722;9.362;2023-07-13T16:08:34;27.50;51.10
46590;DHT22;32313;48.722;9.362;2023-07-13T16:11:00;27.30;51.90
46590;DHT22;32313;48.722;9.362;2023-07-13T16:13:26;27.50;51.30
46590;DHT22;32313;48.722;9.362;2023-07-13T16:15:53;27.90;51.30
46590;DHT22;32313;48.722;9.362;2023-07-13T16:18:21;28.00;51.00
46590;DHT22;32313;48.722;9.362;2023-07-13T16:20:47;27.80;50.60
46590;DHT22;32313;48.722;9.362;2023-07-13T16:23:15;27.50;51.10
46590;DHT22;32313;48.722;9.362;2023-07-13T16:25:41;27.50;53.00
46590;DHT22;32313;48.722;9.362;2023-07-13T16:28:09;27.70;50.30